Time;durP1;ratioP1;P1;durP2;ratioP2;P2;SDS_P1;SDS_P2;PMS_P1;PMS_P2;Temp;Humidity;BMP_temperature;BMP_pressure;BME280_temperature;BME280_humidity;BME280_pressure;Samples;Min_cycle;Max_cycle;Signal;HPM_P1;HPM_P2
2021/05/31 00:00:21;;;;;;;0.70;0.60;;;13.20;99.90;;;13.28;100.00;-21042.97;5135404;27;20443;-76
2021/05/31 00:02:49;;;;;;;0.80;0.60;;;13.00;99.90;;;13.09;100.00;-21037.72;5116856;27;20814;-76
2021/05/31 00:05:22;;;;;;;0.70;0.60;;;12.80;99.90;;;12.93;100.00;-21033.59;5135077;27;21005;-77
2021/05/31 00:07:51;;;;;;;0.70;0.63;;;12.60;99.90;;;12.79;100.00;-21029.84;5130781;27;20824;-76
2021/05/31 00:10:18;;;;;;;0.70;0.60;;;12.50;99.90;;;12.67;100.00;-21026.41;5133388;27;20438;-77
2021/05/31 00:12:46;;;;;;;0.70;0.60;;;12.40;99.90;;;12.49;100.00;-21021.72;5135089;27;20996;-76
2021/05/31 00:15:14;;;;;;;0.70;0.60;;;12.20;99.90;;;12.37;100.00;-21018.41;5116214;27;20459;-77
2021/05/31 00:17:41;;;;;;;0.70;0.67;;;12.10;99.90;;;12.39;100.00;-21018.97;5135122;27;20424;-76
2021/05/31 00:20:12;;;;;;;0.70;0.60;;;12.00;99.90;;;12.33;100.00;-21017.28;5131550;27;20431;-76
2021/05/31 00:22:39;;;;;;;0.70;0.60;;;12.00;99.90;;;12.27;100.00;-21015.78;5133388;27;20407;-77
2021/05/31 00:25:09;;;;;;;0.70;0.60;;;11.90;99.90;;;12.21;100.00;-21014.00;5116576;27;20494;-76
2021/05/31 00:27:38;;;;;;;0.70;0.60;;;11.80;99.90;;;12.15;100.00;-21012.31;5134774;27;20441;-76
2021/05/31 00:30:11;;;;;;;0.70;0.60;;;11.80;99.90;;;12.09;100.00;-21010.94;5129728;27;20419;-76
2021/05/31 00:32:39;;;;;;;0.80;0.80;;;11.70;99.90;;;12.01;100.00;-21008.59;5112967;28;20433;-76
2021/05/31 00:35:09;;;;;;;0.70;0.60;;;11.60;99.90;;;11.92;100.00;-21006.13;5131500;27;20430;-77
2021/05/31 00:37:37;;;;;;;0.70;0.70;;;11.60;99.90;;;11.83;100.00;-21003.75;5111718;28;20446;-77
2021/05/31 00:40:08;;;;;;;0.73;0.60;;;11.50;99.90;;;11.70;100.00;-21000.31;5120520;27;20508;-76
2021/05/31 00:42:36;;;;;;;0.70;0.60;;;11.40;99.90;;;11.61;100.00;-20997.97;5133430;27;20433;-76
2021/05/31 00:45:06;;;;;;;0.70;0.60;;;11.30;99.90;;;11.52;100.00;-20341.41;5132544;27;20449;-77
2021/05/31 00:47:35;;;;;;;0.70;0.60;;;11.20;99.90;;;11.52;100.00;-19081.81;5116036;28;20787;-77
2021/05/31 00:50:10;;;;;;;0.77;0.60;;;11.10;99.90;;;11.46;100.00;-17092.34;5113688;28;20768;-76
2021/05/31 00:52:38;;;;;;;0.70;0.60;;;11.10;99.90;;;11.42;100.00;-14680.28;5112536;28;20442;-77
2021/05/31 00:55:08;;;;;;;0.80;0.60;;;11.00;99.90;;;11.49;100.00;-12177.69;5112599;28;20764;-77
2021/05/31 00:57:36;;;;;;;0.70;0.60;;;11.10;99.90;;;11.52;100.00;-10225.88;5112842;28;20413;-76
2021/05/31 01:00:07;;;;;;;0.70;0.60;;;11.10;99.90;;;11.45;100.00;-7974.91;5112607;28;20410;-77
2021/05/31 01:02:35;;;;;;;0.70;0.60;;;11.10;99.90;;;11.32;100.00;-5423.03;5121510;27;20763;-76
2021/05/31 01:05:04;;;;;;;0.70;0.63;;;11.00;99.90;;;11.21;100.00;-2537.34;5129280;27;20418;-76
2021/05/31 01:07:40;;;;;;;0.70;0.60;;;10.90;99.90;;;11.17;100.00;862.53;5129022;28;20779;-76
2021/05/31 01:10:17;;;;;;;0.80;0.60;;;10.90;99.90;;;11.11;100.00;4583.66;5115061;28;20469;-77
2021/05/31 01:12:56;;;;;;;0.70;0.60;;;10.80;99.90;;;11.07;100.00;7135.31;5100537;28;20943;-77
2021/05/31 01:15:29;;;;;;;0.70;0.60;;;10.70;99.90;;;11.02;100.00;9756.72;5112612;28;20824;-76
2021/05/31 01:18:04;;;;;;;0.70;0.60;;;10.70;99.90;;;11.02;100.00;12436.88;5129466;28;20426;-77
2021/05/31 01:21:13;;;;;;;0.70;0.60;;;10.60;99.90;;;10.96;100.00;14547.44;5123664;28;20936;-77
2021/05/31 01:23:46;;;;;;;0.70;0.60;;;10.60;99.90;;;10.89;100.00;16810.50;5130843;28;20516;-76
2021/05/31 01:26:20;;;;;;;0.70;0.60;;;10.60;99.90;;;10.86;100.00;19865.03;5132919;27;20861;-76
2021/05/31 01:28:59;;;;;;;0.70;0.60;;;10.50;99.90;;;10.80;100.00;22052.72;5131937;27;20862;-76
2021/05/31 01:31:43;;;;;;;0.70;0.60;;;10.50;99.90;;;10.72;100.00;24974.09;5132728;27;20425;-76
2021/05/31 01:34:14;;;;;;;0.70;0.60;;;10.40;99.90;;;10.67;100.00;28336.63;5117210;28;20495;-77
2021/05/31 01:36:47;;;;;;;0.70;0.60;;;10.30;99.90;;;10.66;100.00;31062.50;5124255;27;20481;-77
2021/05/31 01:39:21;;;;;;;0.70;0.60;;;10.30;99.90;;;10.63;100.00;32944.53;5134546;27;20492;-77
2021/05/31 01:41:50;;;;;;;0.70;0.60;;;10.20;99.90;;;10.75;100.00;35139.63;5135808;27;20440;-76
2021/05/31 01:44:20;;;;;;;0.70;0.60;;;10.30;99.90;;;10.81;100.00;35808.69;5137699;27;20436;-77
2021/05/31 01:46:49;;;;;;;0.70;0.60;;;10.40;99.90;;;10.75;100.00;36847.28;5119745;27;20797;-76
2021/05/31 01:49:18;;;;;;;0.80;0.70;;;10.30;99.90;;;10.70;100.00;37274.75;5134939;27;20464;-77
2021/05/31 01:51:47;;;;;;;0.70;0.60;;;10.30;99.90;;;10.59;100.00;38249.44;5119094;27;20835;-77
2021/05/31 01:54:16;;;;;;;0.70;0.60;;;10.20;99.90;;;10.49;100.00;38948.72;5135963;27;20505;-76
2021/05/31 01:56:47;;;;;;;0.70;0.60;;;10.20;99.90;;;10.42;100.00;39724.03;5118432;27;20422;-76
2021/05/31 01:59:20;;;;;;;0.70;0.60;;;10.10;99.90;;;10.33;100.00;40094.91;5136009;27;20458;-77
2021/05/31 02:01:49;;;;;;;0.70;0.60;;;10.10;99.90;;;10.27;100.00;40312.38;5137335;27;20419;-77
2021/05/31 02:04:18;;;;;;;0.70;0.60;;;10.00;99.90;;;10.20;100.00;40317.41;5119274;27;20527;-76
2021/05/31 02:06:48;;;;;;;0.70;0.60;;;9.80;99.90;;;10.08;100.00;40684.13;5122267;27;21052;-76
2021/05/31 02:09:17;;;;;;;0.70;0.60;;;9.70;99.90;;;10.05;100.00;41513.13;5115597;28;20485;-76
2021/05/31 02:11:54;;;;;;;0.70;0.60;;;9.70;99.90;;;10.01;100.00;41658.00;5100363;28;20437;-76
2021/05/31 02:14:33;;;;;;;0.70;0.60;;;9.70;99.90;;;10.02;100.00;41459.50;5125556;27;20527;-76
2021/05/31 02:17:09;;;;;;;0.80;0.60;;;9.70;99.90;;;9.98;100.00;41365.06;5132221;27;20420;-76
2021/05/31 02:19:40;;;;;;;0.70;0.60;;;9.60;99.90;;;9.95;100.00;40962.56;5136836;27;20491;-75
2021/05/31 02:22:11;;;;;;;0.70;0.60;;;9.60;99.90;;;9.93;100.00;40454.19;5118223;27;20452;-76
2021/05/31 02:24:40;;;;;;;0.70;0.60;;;9.60;99.90;;;9.90;100.00;40334.38;5136066;27;20436;-76
2021/05/31 02:27:09;;;;;;;0.70;0.60;;;9.60;99.90;;;9.86;100.00;40094.44;5132112;27;20453;-76
2021/05/31 02:29:38;;;;;;;0.70;0.60;;;9.50;99.90;;;9.82;100.00;39472.41;5135377;27;20504;-76
2021/05/31 02:32:07;;;;;;;0.70;0.60;;;9.50;99.90;;;9.75;100.00;38647.25;5135704;27;20571;-76
2021/05/31 02:34:35;;;;;;;0.70;0.50;;;9.40;99.90;;;9.71;100.00;38369.78;5136257;27;20419;-76
2021/05/31 02:37:03;;;;;;;0.70;0.60;;;9.30;99.90;;;9.70;100.00;38063.19;5133451;27;20448;-76
2021/05/31 02:39:30;;;;;;;0.70;0.60;;;9.30;99.90;;;9.66;100.00;37806.53;5134660;27;20880;-76
2021/05/31 02:41:58;;;;;;;0.70;0.60;;;9.30;99.90;;;9.61;100.00;37451.47;5136917;27;20401;-76
2021/05/31 02:44:25;;;;;;;0.70;0.60;;;9.30;99.90;;;9.54;100.00;36734.53;5118065;27;20512;-76
2021/05/31 02:46:54;;;;;;;0.70;0.57;;;9.20;99.90;;;9.56;100.00;36422.56;5136734;27;20459;-76
2021/05/31 02:49:22;;;;;;;0.70;0.60;;;9.20;99.90;;;9.55;100.00;35862.56;5136496;27;20421;-75
2021/05/31 02:51:49;;;;;;;0.70;0.60;;;9.20;99.90;;;9.56;100.00;35585.66;5136519;27;20404;-76
2021/05/31 02:54:17;;;;;;;0.70;0.60;;;9.30;99.90;;;9.54;100.00;34351.31;5136246;27;20439;-76
2021/05/31 02:56:44;;;;;;;0.70;0.60;;;9.20;99.90;;;9.58;100.00;33466.56;5135340;27;20401;-76
2021/05/31 02:59:14;;;;;;;0.70;0.60;;;9.20;99.90;;;9.56;100.00;32253.00;5118653;27;20464;-76
2021/05/31 03:01:41;;;;;;;0.70;0.60;;;9.20;99.90;;;9.56;100.00;30980.19;5115828;27;20433;-76
2021/05/31 03:04:10;;;;;;;0.70;0.60;;;9.20;99.90;;;9.53;100.00;29338.06;5152701;27;20436;-75
2021/05/31 03:06:38;;;;;;;0.70;0.60;;;9.10;99.90;;;9.50;100.00;28006.47;5131119;27;20511;-76
2021/05/31 03:09:05;;;;;;;0.70;0.60;;;9.10;99.90;;;9.47;100.00;26421.91;5114839;28;20464;-76
2021/05/31 03:11:33;;;;;;;0.70;0.60;;;9.10;99.90;;;9.42;100.00;24786.81;5134577;27;20532;-76
2021/05/31 03:14:00;;;;;;;0.70;0.60;;;9.00;99.90;;;9.39;100.00;23087.38;5135717;27;20420;-76
2021/05/31 03:16:29;;;;;;;0.70;0.60;;;9.00;99.90;;;9.33;100.00;21388.16;5106127;27;20421;-77
2021/05/31 03:18:56;;;;;;;0.70;0.60;;;9.00;99.90;;;9.31;100.00;19676.09;5132537;27;20768;-76
2021/05/31 03:21:25;;;;;;;0.70;0.60;;;9.00;99.90;;;9.26;100.00;17632.91;5140723;27;20456;-76
2021/05/31 03:23:53;;;;;;;0.70;0.50;;;8.90;99.90;;;9.31;100.00;15594.69;5134519;27;20559;-76
2021/05/31 03:26:20;;;;;;;0.70;0.60;;;9.00;99.90;;;9.26;100.00;13271.31;5136022;27;20467;-76
2021/05/31 03:28:47;;;;;;;0.70;0.60;;;8.90;99.90;;;9.30;100.00;11295.72;5135376;27;20524;-76
2021/05/31 03:31:15;;;;;;;0.70;0.60;;;8.90;99.90;;;9.28;100.00;9402.81;5133410;27;20432;-76
2021/05/31 03:33:42;;;;;;;0.93;0.93;;;9.00;99.90;;;9.32;100.00;7855.16;5134366;27;20464;-76
2021/05/31 03:36:10;;;;;;;0.70;0.60;;;9.00;99.90;;;9.33;100.00;6216.72;5132952;27;20425;-76
2021/05/31 03:38:40;;;;;;;0.70;0.60;;;9.00;99.90;;;9.30;100.00;4356.97;5151543;27;20579;-77
2021/05/31 03:41:07;;;;;;;0.70;0.60;;;8.90;99.90;;;9.40;100.00;2555.16;5121762;27;20955;-76
2021/05/31 03:43:35;;;;;;;0.70;0.60;;;9.10;99.90;;;9.43;100.00;896.66;5135307;27;20431;-75
2021/05/31 03:46:02;;;;;;;0.70;0.60;;;9.10;99.90;;;9.45;100.00;-670.72;5134347;27;20955;-75
2021/05/31 03:48:30;;;;;;;0.70;0.60;;;9.10;99.90;;;9.43;100.00;-2018.78;5134267;27;20539;-76
2021/05/31 03:51:08;;;;;;;0.70;0.60;;;9.00;99.90;;;9.40;100.00;-3486.84;5115796;27;20522;-77
2021/05/31 03:53:36;;;;;;;0.70;0.60;;;9.00;99.90;;;9.39;100.00;-4954.13;5130334;27;20514;-77
2021/05/31 03:56:09;;;;;;;0.70;0.60;;;8.90;99.90;;;9.39;100.00;-6111.91;5113853;28;20417;-77
2021/05/31 03:58:40;;;;;;;0.70;0.60;;;8.90;99.90;;;9.40;100.00;-7073.56;5113065;28;20490;-77
2021/05/31 04:01:08;;;;;;;0.70;0.60;;;8.90;99.90;;;9.42;100.00;-8157.94;5115218;27;20441;-77
2021/05/31 04:03:36;;;;;;;0.70;0.50;;;8.90;99.90;;;9.44;100.00;-9086.53;5130631;27;20437;-77
2021/05/31 04:11:38;;;;;;;0.70;0.60;;;9.00;99.90;;;9.51;100.00;-11344.62;5133596;27;20798;-77
2021/05/31 04:14:10;;;;;;;0.70;0.60;;;9.00;99.90;;;9.52;100.00;-11949.00;5133906;27;20817;-75
2021/05/31 04:16:40;;;;;;;0.70;0.60;;;9.00;99.90;;;9.58;100.00;-12503.84;5133819;27;20420;-76
2021/05/31 04:19:09;;;;;;;0.70;0.60;;;9.10;99.90;;;9.63;100.00;-12910.66;5133233;27;20425;-79
2021/05/31 04:21:39;;;;;;;0.70;0.50;;;9.10;99.90;;;9.72;100.00;-13217.66;5136772;27;20417;-78
2021/05/31 04:24:09;;;;;;;0.70;0.60;;;9.20;99.90;;;9.74;100.00;-13498.81;5134094;27;20456;-77
2021/05/31 04:26:39;;;;;;;0.70;0.60;;;9.30;99.90;;;9.79;100.00;-13664.97;5132681;27;20480;-76
2021/05/31 04:29:08;;;;;;;0.70;0.60;;;9.30;99.90;;;9.83;100.00;-13923.78;5133046;27;20969;-76
2021/05/31 04:31:38;;;;;;;0.70;0.60;;;9.30;99.90;;;9.88;100.00;-14290.59;5130612;27;20426;-76
2021/05/31 04:34:08;;;;;;;0.70;0.50;;;9.30;99.90;;;9.93;100.00;-14622.41;5123334;27;20424;-76
2021/05/31 04:36:36;;;;;;;0.70;0.50;;;9.40;99.90;;;9.97;100.00;-14871.09;5123042;27;20445;-76
2021/05/31 04:39:06;;;;;;;0.70;0.50;;;9.50;99.90;;;10.02;100.00;-15030.00;5131331;27;20462;-76
2021/05/31 04:41:36;;;;;;;0.70;0.60;;;9.50;99.90;;;10.06;100.00;-15196.09;5131477;27;20425;-76
2021/05/31 04:44:06;;;;;;;0.70;0.60;;;9.50;99.90;;;10.13;100.00;-15332.84;5134159;27;20416;-76
2021/05/31 04:46:33;;;;;;;0.70;0.60;;;9.60;99.90;;;10.22;100.00;-15412.03;5128862;27;20464;-76
2021/05/31 04:49:03;;;;;;;0.70;0.60;;;9.70;99.90;;;10.30;100.00;-15431.06;5113866;28;20859;-75
2021/05/31 04:51:31;;;;;;;0.70;0.60;;;9.80;99.90;;;10.38;100.00;-15495.34;5129382;27;20528;-76
2021/05/31 04:53:59;;;;;;;0.70;0.60;;;9.80;99.90;;;10.49;100.00;-15442.03;5112795;28;20445;-76
2021/05/31 04:56:28;;;;;;;0.70;0.60;;;9.90;99.90;;;10.61;100.00;-15248.59;5112748;28;20432;-75
2021/05/31 04:58:55;;;;;;;0.70;0.60;;;10.10;99.90;;;10.69;100.00;-15134.53;5112260;28;20482;-75
2021/05/31 05:01:24;;;;;;;0.70;0.60;;;10.20;99.90;;;10.80;100.00;-14950.81;5126239;27;20460;-75
2021/05/31 05:03:52;;;;;;;0.70;0.60;;;10.30;99.90;;;10.89;100.00;-14706.41;5132791;27;20504;-75
2021/05/31 05:06:19;;;;;;;0.70;0.60;;;10.40;99.90;;;11.05;100.00;-14480.66;5116009;28;21036;-75
2021/05/31 05:08:50;;;;;;;0.70;0.60;;;10.50;99.90;;;11.18;100.00;-14023.09;5131738;27;20453;-75
2021/05/31 05:11:22;;;;;;;0.70;0.60;;;10.60;99.90;;;11.28;100.00;-13637.69;5113789;28;20772;-76
2021/05/31 05:13:52;;;;;;;0.70;0.60;;;10.80;99.90;;;11.44;100.00;-13207.84;5119218;28;21010;-76
2021/05/31 05:16:20;;;;;;;0.70;0.57;;;10.90;99.90;;;11.60;100.00;-12531.19;5112356;28;20893;-76
2021/05/31 05:18:50;;;;;;;0.80;0.70;;;11.10;99.90;;;11.80;100.00;-11804.22;5113374;28;20755;-76
2021/05/31 05:21:19;;;;;;;0.70;0.60;;;11.30;99.90;;;12.11;100.00;-10873.81;5117638;28;20750;-75
2021/05/31 05:23:47;;;;;;;0.70;0.60;;;11.50;99.90;;;12.49;100.00;-9665.75;5133329;27;20444;-76
2021/05/31 05:26:16;;;;;;;0.80;0.80;;;11.80;99.90;;;12.86;100.00;-8066.94;5132807;28;20430;-75
2021/05/31 05:28:43;;;;;;;0.70;0.60;;;12.30;99.90;;;13.14;100.00;-6227.69;5132840;28;20450;-76
2021/05/31 05:31:11;;;;;;;0.70;0.60;;;12.50;99.90;;;13.23;100.00;-4297.22;5131700;28;20456;-75
2021/05/31 05:33:42;;;;;;;0.70;0.50;;;12.60;99.90;;;13.52;100.00;-2167.03;5132653;28;20496;-76
2021/05/31 05:41:37;;;;;;;0.70;0.60;;;13.40;99.90;;;13.95;100.00;-149.16;5133804;27;20811;-75
2021/05/31 05:49:12;;;;;;;0.80;0.63;;;13.60;99.90;;;14.30;100.00;-21070.53;5113394;28;20405;-75
2021/05/31 05:51:41;;;;;;;0.80;0.60;;;13.70;99.90;;;14.58;100.00;-21078.09;5111825;28;20845;-76
2021/05/31 05:54:09;;;;;;;0.70;0.60;;;14.00;99.90;;;14.62;100.00;-21079.06;5114420;28;20448;-76
2021/05/31 05:56:36;;;;;;;0.70;0.60;;;14.10;99.90;;;14.62;100.00;-21079.06;5112446;28;20410;-75
2021/05/31 05:59:04;;;;;;;1.43;1.33;;;13.90;99.90;;;14.49;100.00;-21075.59;5113196;28;20417;-75
2021/05/31 06:01:32;;;;;;;0.70;0.60;;;13.90;99.90;;;14.44;100.00;-21074.38;5113007;28;20408;-75
2021/05/31 06:04:00;;;;;;;0.70;0.60;;;13.90;99.90;;;14.66;100.00;-21080.16;5114241;28;20445;-75
2021/05/31 06:06:28;;;;;;;0.70;0.60;;;14.10;99.90;;;14.90;100.00;-21086.63;5129165;28;20535;-76
2021/05/31 06:08:58;;;;;;;0.70;0.60;;;14.30;99.90;;;15.15;100.00;-21093.38;5128350;27;20510;-76
2021/05/31 06:11:25;;;;;;;0.73;0.70;;;14.60;99.90;;;15.31;100.00;-21097.75;5132396;28;20955;-75
2021/05/31 06:13:53;;;;;;;0.70;0.60;;;14.80;99.90;;;15.38;100.00;-21099.69;5134772;27;20417;-75
2021/05/31 06:16:21;;;;;;;0.73;0.70;;;14.90;99.90;;;15.52;100.00;-21103.25;5136092;27;20440;-75
2021/05/31 06:18:50;;;;;;;0.70;0.60;;;15.00;99.90;;;15.74;100.00;-21109.19;5118623;27;20435;-75
2021/05/31 06:21:18;;;;;;;0.70;0.60;;;15.20;99.90;;;15.97;100.00;-21115.38;5136111;27;21003;-75
2021/05/31 06:23:46;;;;;;;0.70;0.60;;;15.50;99.90;;;16.07;100.00;-21118.09;5136799;27;20437;-75
2021/05/31 06:26:15;;;;;;;0.70;0.60;;;15.50;99.90;;;16.08;100.00;-21118.38;5135870;27;20944;-75
2021/05/31 06:28:42;;;;;;;0.70;0.60;;;15.60;99.90;;;16.12;100.00;-21119.63;5134688;27;20467;-75
2021/05/31 06:31:10;;;;;;;0.70;0.60;;;15.70;99.90;;;16.19;100.00;-21121.41;5136835;27;20423;-76
2021/05/31 06:33:38;;;;;;;0.80;0.70;;;15.70;99.90;;;16.30;100.00;-21124.28;5136801;27;20439;-75
2021/05/31 06:36:08;;;;;;;0.70;0.60;;;15.80;99.90;;;16.49;100.00;-21129.38;5131830;27;20429;-75
2021/05/31 06:38:37;;;;;;;0.70;0.70;;;16.00;99.90;;;16.53;100.00;-21130.47;5134825;27;20851;-76
2021/05/31 06:41:04;;;;;;;0.70;0.60;;;16.10;99.90;;;16.73;100.00;-21135.97;5119073;27;20835;-75
2021/05/31 06:43:34;;;;;;;0.80;0.70;;;16.20;99.90;;;17.00;100.00;-21143.22;5135447;27;20460;-76
2021/05/31 06:46:07;;;;;;;0.70;0.60;;;16.30;99.90;;;17.19;100.00;-21148.16;5137548;27;20400;-75
2021/05/31 06:48:34;;;;;;;0.80;0.70;;;16.50;99.90;;;17.14;100.00;-21146.94;5136639;27;20453;-75
2021/05/31 06:51:02;;;;;;;0.80;0.70;;;16.50;99.90;;;17.22;100.00;-21149.13;5135141;27;20435;-75
2021/05/31 06:53:32;;;;;;;0.80;0.60;;;16.60;99.90;;;17.36;100.00;-21152.97;5136473;27;20468;-75
2021/05/31 06:55:59;;;;;;;0.80;0.70;;;16.70;99.90;;;17.43;100.00;-21154.63;5111260;28;20949;-75
2021/05/31 06:58:28;;;;;;;0.70;0.60;;;16.80;99.90;;;17.48;100.00;-21156.00;5116213;28;20403;-74
2021/05/31 07:00:58;;;;;;;0.70;0.60;;;16.90;99.90;;;17.66;100.00;-21160.94;5098226;28;20421;-76
2021/05/31 07:03:49;;;;;;;0.70;0.60;;;17.20;99.90;;;17.83;100.00;-21165.59;5115980;28;20433;-75
2021/05/31 07:06:19;;;;;;;0.80;0.70;;;17.30;99.90;;;17.98;100.00;-21169.56;5131899;27;20482;-75
2021/05/31 07:08:48;;;;;;;0.70;0.60;;;17.30;99.90;;;18.23;100.00;-21176.13;5129969;27;20473;-75
2021/05/31 07:11:18;;;;;;;0.70;0.63;;;17.30;99.90;;;18.24;100.00;-21176.41;5135790;27;20468;-76
2021/05/31 07:13:46;;;;;;;0.80;0.70;;;17.60;99.90;;;18.30;100.00;-21178.19;5135094;27;20458;-75
2021/05/31 07:16:16;;;;;;;0.73;0.60;;;17.80;99.90;;;18.45;100.00;-21182.03;5134960;27;20403;-76
2021/05/31 07:18:45;;;;;;;0.80;0.60;;;17.80;99.90;;;18.41;100.00;-21181.06;5126674;27;20429;-75
2021/05/31 07:21:13;;;;;;;0.70;0.70;;;17.80;99.90;;;18.45;100.00;-21182.03;5114479;28;20443;-75
2021/05/31 07:23:41;;;;;;;0.80;0.60;;;17.80;99.90;;;18.61;100.00;-21186.41;5096884;28;20553;-75
2021/05/31 07:26:08;;;;;;;0.77;0.70;;;18.10;99.90;;;18.85;100.00;-21192.72;5135160;27;20963;-76
2021/05/31 07:28:38;;;;;;;0.80;0.70;;;18.30;99.90;;;19.04;100.00;-21197.91;5147697;27;20490;-75
2021/05/31 07:31:06;;;;;;;0.70;0.60;;;18.50;99.90;;;19.16;100.00;-21201.06;5136384;27;20776;-75
2021/05/31 07:33:36;;;;;;;0.70;0.60;;;18.50;99.90;;;19.12;100.00;-21200.09;5131028;27;20425;-75
2021/05/31 07:36:12;;;;;;;0.80;0.70;;;18.70;99.90;;;19.37;100.00;-21206.66;5114167;28;20432;-75
2021/05/31 07:38:40;;;;;;;1.97;1.33;;;18.90;97.60;;;19.34;100.00;-21205.97;5126878;27;20474;-76
2021/05/31 07:41:09;;;;;;;0.80;0.63;;;18.90;97.80;;;19.63;100.00;-21213.78;5114202;28;20483;-75
2021/05/31 07:43:38;;;;;;;0.80;0.70;;;19.20;96.20;;;19.77;100.00;-21217.59;5115540;28;20414;-75
2021/05/31 07:46:06;;;;;;;0.80;0.60;;;19.20;92.30;;;20.00;100.00;-21223.63;5114466;28;20767;-76
2021/05/31 07:48:35;;;;;;;0.80;0.67;;;19.20;89.40;;;19.90;100.00;-21220.88;5117105;28;20456;-75
2021/05/31 07:51:17;;;;;;;0.80;0.60;;;19.40;90.30;;;20.34;100.00;-21232.75;5115117;28;20404;-75
2021/05/31 07:53:47;;;;;;;0.80;0.70;;;19.80;85.60;;;20.61;100.00;-21240.00;5113588;28;20810;-74
2021/05/31 07:56:15;;;;;;;0.70;0.60;;;20.10;78.50;;;20.70;100.00;-21242.47;5131176;27;20490;-75
2021/05/31 07:58:45;;;;;;;1.07;0.97;;;20.10;72.50;;;20.65;100.00;-21241.09;5118051;28;20432;-74
2021/05/31 08:01:13;;;;;;;0.77;0.70;;;20.10;74.00;;;20.82;100.00;-21245.47;5121117;27;20537;-75
2021/05/31 08:03:43;;;;;;;0.80;0.70;;;20.00;70.80;;;20.87;100.00;-21246.84;5129596;27;20475;-76
2021/05/31 08:06:11;;;;;;;0.80;0.70;;;20.30;65.00;;;21.22;100.00;-21256.38;5134194;27;20429;-75
2021/05/31 08:08:39;;;;;;;0.80;0.67;;;20.10;60.00;;;21.39;100.00;-21260.75;5117931;27;20598;-76
2021/05/31 08:11:08;;;;;;;0.80;0.70;;;20.50;61.80;;;21.62;100.00;-21267.03;5113473;28;20408;-77
2021/05/31 08:13:36;;;;;;;0.70;0.60;;;20.70;58.70;;;21.69;100.00;-21268.94;5113582;28;20848;-76
2021/05/31 08:16:06;;;;;;;0.70;0.60;;;20.90;57.30;;;22.17;100.00;-21281.75;5125845;27;20913;-76
2021/05/31 08:18:33;;;;;;;0.80;0.60;;;20.70;52.60;;;21.99;100.00;-21276.84;5113874;28;20429;-75
2021/05/31 08:21:04;;;;;;;0.80;0.60;;;20.90;54.30;;;22.24;100.00;-21283.38;5098436;27;20435;-76
2021/05/31 08:23:32;;;;;;;0.80;0.60;;;21.20;54.20;;;22.15;100.00;-21281.06;5133308;27;20415;-76
2021/05/31 08:26:00;;;;;;;0.70;0.60;;;21.50;53.50;;;22.59;100.00;-21292.91;5132232;27;20974;-76
2021/05/31 08:28:28;;;;;;;0.70;0.60;;;21.50;50.70;;;22.99;100.00;-21303.53;5121242;27;21000;-75
2021/05/31 08:31:00;;;;;;;0.80;0.60;;;21.80;47.10;;;22.83;100.00;-21299.16;5113723;28;20883;-76
2021/05/31 08:33:28;;;;;;;0.70;0.60;;;22.10;42.90;;;23.52;100.00;-21317.66;5117610;27;20440;-76
2021/05/31 08:35:55;;;;;;;0.70;0.50;;;22.40;42.80;;;23.62;100.00;-21320.38;5149169;27;20440;-75
2021/05/31 08:38:31;;;;;;;0.70;0.50;;;22.50;40.20;;;23.87;100.00;-21326.91;5123662;27;20517;-75
2021/05/31 08:41:00;;;;;;;1.13;0.70;;;22.60;40.10;;;24.26;100.00;-21337.22;5135206;27;20415;-76
2021/05/31 08:43:28;;;;;;;0.70;0.53;;;22.90;35.30;;;24.47;100.00;-21342.94;5120381;27;20481;-75
2021/05/31 08:45:56;;;;;;;0.70;0.50;;;23.00;34.70;;;24.95;100.00;-21355.69;5134611;27;20443;-76
2021/05/31 08:48:24;;;;;;;0.70;0.50;;;22.90;35.40;;;25.35;100.00;-21366.28;5133479;27;20453;-76
2021/05/31 08:50:55;;;;;;;0.70;0.50;;;23.40;31.80;;;25.06;100.00;-21358.69;5133485;27;20429;-76
2021/05/31 08:53:23;;;;;;;0.70;0.50;;;23.50;29.90;;;26.26;100.00;-21390.38;5132813;27;20451;-76
2021/05/31 08:55:53;;;;;;;0.70;0.50;;;23.90;36.50;;;27.08;100.00;-21412.16;5134229;27;20435;-77
2021/05/31 08:58:20;;;;;;;0.70;0.50;;;23.40;32.50;;;28.16;100.00;-21440.69;5130961;27;20790;-78
2021/05/31 09:00:48;;;;;;;0.70;0.50;;;23.50;29.20;;;28.78;100.00;-21457.00;5134609;27;20488;-76
2021/05/31 09:03:18;;;;;;;0.70;0.50;;;23.50;27.70;;;28.54;100.00;-21450.81;5133456;27;20912;-78
2021/05/31 09:05:49;;;;;;;0.70;0.50;;;23.60;25.90;;;28.66;100.00;-21453.91;5132329;27;20971;-76
2021/05/31 09:08:19;;;;;;;0.70;0.50;;;24.00;29.00;;;27.15;100.00;-21414.06;5130320;27;21028;-75
2021/05/31 09:10:51;;;;;;;0.70;0.50;;;24.60;28.20;;;27.73;100.00;-21429.34;5133257;27;20434;-77
2021/05/31 09:13:31;;;;;;;0.70;0.50;;;24.80;28.00;;;27.18;100.00;-21414.75;5115460;28;20417;-75
2021/05/31 09:16:12;;;;;;;0.70;0.50;;;24.60;25.50;;;26.05;100.00;-21384.69;5114180;28;20789;-75
2021/05/31 09:18:47;;;;;;;0.70;0.50;;;24.50;22.10;;;27.09;100.00;-21412.31;5112334;28;20433;-76
2021/05/31 09:21:19;;;;;;;0.70;0.50;;;24.80;24.00;;;29.03;100.00;-21463.75;5129127;28;20460;-76
2021/05/31 09:23:51;;;;;;;0.80;0.50;;;24.90;20.30;;;27.79;100.00;-21430.97;5133676;28;20444;-76
2021/05/31 09:26:19;;;;;;;1.20;0.80;;;25.30;20.90;;;27.87;100.00;-21433.13;5133171;28;20746;-76
2021/05/31 09:28:56;;;;;;;0.70;0.50;;;25.50;18.90;;;29.79;100.00;-21483.81;5133985;27;20470;-77
2021/05/31 09:31:25;;;;;;;0.80;0.50;;;25.00;16.70;;;27.09;100.00;-21412.31;5128554;28;20437;-76
2021/05/31 09:33:58;;;;;;;0.70;0.50;;;24.90;17.40;;;27.38;100.00;-21420.16;5116115;28;20911;-76
2021/05/31 09:36:31;;;;;;;0.80;0.50;;;25.40;19.40;;;27.75;100.00;-21429.88;5115795;28;20426;-73
2021/05/31 09:38:59;;;;;;;0.73;0.50;;;25.40;19.40;;;27.50;100.00;-21423.25;5128429;28;20457;-76
2021/05/31 09:41:30;;;;;;;0.83;0.70;;;25.30;22.00;;;27.82;100.00;-21431.63;5096244;28;20430;-76
2021/05/31 09:44:02;;;;;;;0.70;0.50;;;25.60;21.10;;;28.42;100.00;-21447.69;5114463;28;20425;-77
2021/05/31 09:46:40;;;;;;;0.80;0.50;;;26.00;18.70;;;28.97;100.00;-21462.00;5112677;28;20932;-75
2021/05/31 09:49:17;;;;;;;0.80;0.50;;;26.20;16.30;;;28.98;100.00;-21462.41;5114790;28;20460;-77
2021/05/31 09:51:57;;;;;;;0.70;0.50;;;26.00;15.70;;;28.56;100.00;-21451.22;5102415;28;20418;-76
2021/05/31 09:54:35;;;;;;;0.80;0.50;;;26.10;18.20;;;27.84;100.00;-21432.19;5135871;27;20464;-76
2021/05/31 09:57:26;;;;;;;0.80;0.50;;;26.30;20.10;;;29.12;100.00;-21466.03;5119431;27;20443;-76
2021/05/31 09:59:59;;;;;;;0.80;0.50;;;26.30;16.60;;;29.86;100.00;-21485.56;5132132;27;20476;-79
2021/05/31 10:10:42;;;;;;;0.80;0.50;;;27.20;17.90;;;29.44;100.00;-21474.41;5131718;27;20444;-76
2021/05/31 10:13:10;;;;;;;0.80;0.50;;;27.10;14.00;;;29.25;97.31;-21469.53;5116779;28;20424;-76
2021/05/31 10:15:41;;;;;;;0.80;0.50;;;26.40;11.60;;;28.81;100.00;-21457.81;5098608;28;20962;-77
2021/05/31 10:18:13;;;;;;;1.00;0.67;;;25.70;17.50;;;29.20;100.00;-21468.19;5115564;28;20417;-76
2021/05/31 10:20:42;;;;;;;0.80;0.50;;;26.10;17.80;;;29.68;100.00;-21480.72;5116230;27;20433;-78
2021/05/31 10:23:12;;;;;;;1.10;0.87;;;26.40;16.20;;;30.85;98.15;-21511.53;5135310;27;20445;-78
2021/05/31 10:25:46;;;;;;;0.80;0.50;;;26.00;13.80;;;31.13;98.51;-21519.06;5135188;27;20459;-78
2021/05/31 10:28:18;;;;;;;0.80;0.50;;;26.60;15.90;;;30.95;100.00;-21514.22;5124837;27;20446;-77
2021/05/31 10:30:50;;;;;;;0.90;0.60;;;27.50;16.30;;;30.91;98.11;-21513.28;5116744;28;20412;-76
2021/05/31 10:33:23;;;;;;;0.80;0.50;;;27.00;14.80;;;30.35;97.54;-21498.34;5098587;28;20524;-78
2021/05/31 10:35:55;;;;;;;0.80;0.50;;;26.90;12.00;;;29.31;100.00;-21471.16;5130475;27;20429;-76
2021/05/31 10:38:27;;;;;;;0.80;0.50;;;27.10;21.10;;;30.15;100.00;-21493.25;5117521;27;20470;-77
2021/05/31 10:40:55;;;;;;;1.03;0.70;;;27.70;14.40;;;29.07;98.88;-21464.69;5135102;27;20436;-77
2021/05/31 10:43:25;;;;;;;0.80;0.50;;;27.60;11.70;;;30.26;96.96;-21496.19;5119755;27;20432;-77
2021/05/31 10:46:04;;;;;;;0.80;0.50;;;27.50;10.00;;;31.65;94.63;-21532.63;5121109;27;20428;-78
2021/05/31 10:48:43;;;;;;;0.80;0.50;;;26.80;10.20;;;28.61;98.06;-21452.56;5114754;28;20457;-75